sensor_id;sensor_type;location;lat;lon;timestamp;P1;durP1;ratioP1;P2;durP2;ratioP2
2289;SDS011;1153;47.986;7.898;2023-05-01T00:00:49;3.13;;;2.93;;
2289;SDS011;1153;47.986;7.898;2023-05-01T00:03:14;3.40;;;3.10;;
2289;SDS011;1153;47.986;7.898;2023-05-01T00:05:42;2.90;;;2.50;;
2289;SDS011;1153;47.986;7.898;2023-05-01T00:08:07;3.20;;;3.00;;
2289;SDS011;1153;47.986;7.898;2023-05-01T00:10:34;3.37;;;3.07;;
2289;SDS011;1153;47.986;7.898;2023-05-01T00:12:59;3.83;;;2.30;;
2289;SDS011;1153;47.986;7.898;2023-05-01T00:15:24;3.00;;;2.80;;
2289;SDS011;1153;47.986;7.898;2023-05-01T00:17:49;2.93;;;2.73;;
2289;SDS011;1153;47.986;7.898;2023-05-01T00:20:15;2.50;;;2.40;;
2289;SDS011;1153;47.986;7.898;2023-05-01T00:22:40;3.83;;;2.90;;
2289;SDS011;1153;47.986;7.898;2023-05-01T00:25:06;5.60;;;2.50;;
2289;SDS011;1153;47.986;7.898;2023-05-01T00:27:32;2.40;;;2.30;;
2289;SDS011;1153;47.986;7.898;2023-05-01T00:29:57;2.70;;;2.60;;
2289;SDS011;1153;47.986;7.898;2023-05-01T00:32:22;3.03;;;2.80;;
2289;SDS011;1153;47.986;7.898;2023-05-01T00:34:47;2.07;;;1.97;;
2289;SDS011;1153;47.986;7.898;2023-05-01T00:37:13;2.77;;;2.57;;
2289;SDS011;1153;47.986;7.898;2023-05-01T00:39:38;2.57;;;2.37;;
2289;SDS011;1153;47.986;7.898;2023-05-01T00:42:03;2.57;;;2.47;;
2289;SDS011;1153;47.986;7.898;2023-05-01T00:44:28;2.70;;;2.60;;
2289;SDS011;1153;47.986;7.898;2023-05-01T00:46:54;2.90;;;2.80;;
2289;SDS011;1153;47.986;7.898;2023-05-01T00:49:21;2.07;;;1.97;;
2289;SDS011;1153;47.986;7.898;2023-05-01T00:51:48;3.20;;;3.10;;
2289;SDS011;1153;47.986;7.898;2023-05-01T00:54:14;2.90;;;2.70;;
2289;SDS011;1153;47.986;7.898;2023-05-01T00:56:39;2.37;;;2.27;;
2289;SDS011;1153;47.986;7.898;2023-05-01T00:59:04;6.50;;;3.33;;
2289;SDS011;1153;47.986;7.898;2023-05-01T01:01:29;2.67;;;2.57;;
2289;SDS011;1153;47.986;7.898;2023-05-01T01:03:55;2.87;;;2.67;;
2289;SDS011;1153;47.986;7.898;2023-05-01T01:06:34;3.33;;;3.23;;
2289;SDS011;1153;47.986;7.898;2023-05-01T01:09:07;3.20;;;3.10;;
2289;SDS011;1153;47.986;7.898;2023-05-01T01:22:08;2.97;;;2.77;;
2289;SDS011;1153;47.986;7.898;2023-05-01T01:27:29;2.77;;;2.40;;
2289;SDS011;1153;47.986;7.898;2023-05-01T01:30:05;2.43;;;2.33;;
2289;SDS011;1153;47.986;7.898;2023-05-01T01:35:05;8.70;;;3.00;;
2289;SDS011;1153;47.986;7.898;2023-05-01T01:37:36;3.00;;;2.80;;
2289;SDS011;1153;47.986;7.898;2023-05-01T01:40:28;3.10;;;3.00;;
2289;SDS011;1153;47.986;7.898;2023-05-01T01:42:51;2.47;;;1.70;;
2289;SDS011;1153;47.986;7.898;2023-05-01T01:45:22;2.60;;;2.40;;
2289;SDS011;1153;47.986;7.898;2023-05-01T01:47:49;2.77;;;2.57;;
2289;SDS011;1153;47.986;7.898;2023-05-01T01:50:15;4.07;;;3.67;;
2289;SDS011;1153;47.986;7.898;2023-05-01T01:52:42;3.57;;;2.40;;
2289;SDS011;1153;47.986;7.898;2023-05-01T01:55:10;11.50;;;2.67;;
2289;SDS011;1153;47.986;7.898;2023-05-01T01:57:37;3.07;;;2.97;;
2289;SDS011;1153;47.986;7.898;2023-05-01T02:00:04;3.27;;;2.97;;
2289;SDS011;1153;47.986;7.898;2023-05-01T02:02:33;4.80;;;3.10;;
2289;SDS011;1153;47.986;7.898;2023-05-01T02:05:00;3.03;;;2.93;;
2289;SDS011;1153;47.986;7.898;2023-05-01T02:07:25;2.33;;;2.23;;
2289;SDS011;1153;47.986;7.898;2023-05-01T02:09:52;2.80;;;2.70;;
2289;SDS011;1153;47.986;7.898;2023-05-01T02:12:18;3.03;;;2.83;;
2289;SDS011;1153;47.986;7.898;2023-05-01T02:14:44;2.87;;;2.77;;
2289;SDS011;1153;47.986;7.898;2023-05-01T02:17:09;4.17;;;3.90;;
2289;SDS011;1153;47.986;7.898;2023-05-01T02:19:36;3.10;;;2.97;;
2289;SDS011;1153;47.986;7.898;2023-05-01T02:22:02;3.37;;;3.17;;
2289;SDS011;1153;47.986;7.898;2023-05-01T02:24:29;3.00;;;2.90;;
2289;SDS011;1153;47.986;7.898;2023-05-01T02:26:59;4.80;;;3.37;;
2289;SDS011;1153;47.986;7.898;2023-05-01T02:29:27;3.73;;;2.83;;
2289;SDS011;1153;47.986;7.898;2023-05-01T02:31:52;2.70;;;2.60;;
2289;SDS011;1153;47.986;7.898;2023-05-01T02:34:18;4.60;;;3.17;;
2289;SDS011;1153;47.986;7.898;2023-05-01T02:36:43;3.03;;;2.93;;
2289;SDS011;1153;47.986;7.898;2023-05-01T02:39:08;2.63;;;2.53;;
2289;SDS011;1153;47.986;7.898;2023-05-01T02:41:34;3.43;;;3.10;;
2289;SDS011;1153;47.986;7.898;2023-05-01T02:44:00;2.80;;;2.70;;
2289;SDS011;1153;47.986;7.898;2023-05-01T02:46:25;3.50;;;3.40;;
2289;SDS011;1153;47.986;7.898;2023-05-01T02:48:52;3.07;;;2.87;;
2289;SDS011;1153;47.986;7.898;2023-05-01T02:51:18;3.37;;;3.17;;
2289;SDS011;1153;47.986;7.898;2023-05-01T02:53:43;2.87;;;2.67;;
2289;SDS011;1153;47.986;7.898;2023-05-01T02:56:08;3.80;;;3.70;;
2289;SDS011;1153;47.986;7.898;2023-05-01T02:58:34;3.60;;;3.30;;
2289;SDS011;1153;47.986;7.898;2023-05-01T03:00:59;6.50;;;3.43;;
2289;SDS011;1153;47.986;7.898;2023-05-01T03:03:24;2.70;;;2.60;;
2289;SDS011;1153;47.986;7.898;2023-05-01T03:05:51;3.23;;;3.03;;
2289;SDS011;1153;47.986;7.898;2023-05-01T03:08:17;2.77;;;2.57;;
2289;SDS011;1153;47.986;7.898;2023-05-01T03:10:43;3.37;;;3.27;;
2289;SDS011;1153;47.986;7.898;2023-05-01T03:13:09;2.90;;;2.70;;
2289;SDS011;1153;47.986;7.898;2023-05-01T03:15:35;2.47;;;2.37;;
2289;SDS011;1153;47.986;7.898;2023-05-01T03:18:00;2.37;;;2.27;;
2289;SDS011;1153;47.986;7.898;2023-05-01T03:20:25;2.83;;;2.73;;
2289;SDS011;1153;47.986;7.898;2023-05-01T03:22:51;2.80;;;2.70;;
2289;SDS011;1153;47.986;7.898;2023-05-01T03:25:16;5.93;;;3.63;;
2289;SDS011;1153;47.986;7.898;2023-05-01T03:27:41;3.87;;;3.67;;
2289;SDS011;1153;47.986;7.898;2023-05-01T03:30:06;3.13;;;2.93;;
2289;SDS011;1153;47.986;7.898;2023-05-01T03:32:34;2.97;;;2.87;;
2289;SDS011;1153;47.986;7.898;2023-05-01T03:34:59;3.40;;;2.93;;
2289;SDS011;1153;47.986;7.898;2023-05-01T03:37:24;3.87;;;2.87;;
2289;SDS011;1153;47.986;7.898;2023-05-01T03:39:50;4.03;;;3.80;;
2289;SDS011;1153;47.986;7.898;2023-05-01T03:42:15;3.50;;;3.37;;
2289;SDS011;1153;47.986;7.898;2023-05-01T03:44:41;4.60;;;4.40;;
2289;SDS011;1153;47.986;7.898;2023-05-01T03:47:06;3.53;;;3.43;;
2289;SDS011;1153;47.986;7.898;2023-05-01T03:49:31;3.70;;;3.50;;
2289;SDS011;1153;47.986;7.898;2023-05-01T03:51:56;3.33;;;3.13;;
2289;SDS011;1153;47.986;7.898;2023-05-01T03:54:21;2.60;;;2.40;;
2289;SDS011;1153;47.986;7.898;2023-05-01T03:56:47;3.40;;;3.20;;
2289;SDS011;1153;47.986;7.898;2023-05-01T03:59:12;3.53;;;3.40;;
2289;SDS011;1153;47.986;7.898;2023-05-01T04:01:38;3.27;;;3.07;;
2289;SDS011;1153;47.986;7.898;2023-05-01T04:04:04;2.80;;;2.70;;
2289;SDS011;1153;47.986;7.898;2023-05-01T04:06:29;3.00;;;2.80;;
2289;SDS011;1153;47.986;7.898;2023-05-01T04:08:54;3.30;;;3.20;;
2289;SDS011;1153;47.986;7.898;2023-05-01T04:11:20;3.47;;;3.27;;
2289;SDS011;1153;47.986;7.898;2023-05-01T04:13:45;2.90;;;2.80;;
2289;SDS011;1153;47.986;7.898;2023-05-01T04:16:10;3.23;;;3.03;;
2289;SDS011;1153;47.986;7.898;2023-05-01T04:18:36;3.90;;;3.50;;
2289;SDS011;1153;47.986;7.898;2023-05-01T04:21:01;3.00;;;2.90;;
2289;SDS011;1153;47.986;7.898;2023-05-01T04:23:26;3.50;;;3.40;;
2289;SDS011;1153;47.986;7.898;2023-05-01T04:25:51;3.60;;;3.40;;
2289;SDS011;1153;47.986;7.898;2023-05-01T04:28:16;3.50;;;3.30;;
2289;SDS011;1153;47.986;7.898;2023-05-01T04:30:42;3.70;;;3.40;;
2289;SDS011;1153;47.986;7.898;2023-05-01T04:33:07;4.07;;;3.87;;
2289;SDS011;1153;47.986;7.898;2023-05-01T04:35:38;3.87;;;3.57;;
2289;SDS011;1153;47.986;7.898;2023-05-01T04:38:07;5.83;;;5.50;;
2289;SDS011;1153;47.986;7.898;2023-05-01T04:40:32;4.33;;;4.13;;
2289;SDS011;1153;47.986;7.898;2023-05-01T04:42:58;4.43;;;4.23;;
2289;SDS011;1153;47.986;7.898;2023-05-01T04:45:23;4.40;;;4.20;;
2289;SDS011;1153;47.986;7.898;2023-05-01T04:47:48;3.93;;;3.63;;
2289;SDS011;1153;47.986;7.898;2023-05-01T04:50:13;4.43;;;4.23;;
2289;SDS011;1153;47.986;7.898;2023-05-01T04:52:39;4.47;;;4.27;;
2289;SDS011;1153;47.986;7.898;2023-05-01T04:55:04;4.13;;;3.93;;
2289;SDS011;1153;47.986;7.898;2023-05-01T04:57:29;5.10;;;4.80;;
2289;SDS011;1153;47.986;7.898;2023-05-01T04:59:55;9.20;;;5.10;;
2289;SDS011;1153;47.986;7.898;2023-05-01T05:02:20;4.57;;;4.27;;
2289;SDS011;1153;47.986;7.898;2023-05-01T05:04:45;6.50;;;4.60;;
2289;SDS011;1153;47.986;7.898;2023-05-01T05:07:10;5.10;;;4.83;;
2289;SDS011;1153;47.986;7.898;2023-05-01T05:09:36;5.87;;;5.53;;
2289;SDS011;1153;47.986;7.898;2023-05-01T05:12:01;4.77;;;4.57;;
2289;SDS011;1153;47.986;7.898;2023-05-01T05:14:28;5.00;;;3.67;;
2289;SDS011;1153;47.986;7.898;2023-05-01T05:16:53;3.53;;;3.33;;
2289;SDS011;1153;47.986;7.898;2023-05-01T05:19:18;3.40;;;3.30;;
2289;SDS011;1153;47.986;7.898;2023-05-01T05:21:44;3.80;;;3.60;;
2289;SDS011;1153;47.986;7.898;2023-05-01T05:24:09;4.73;;;4.53;;
2289;SDS011;1153;47.986;7.898;2023-05-01T05:26:34;6.80;;;6.50;;
2289;SDS011;1153;47.986;7.898;2023-05-01T05:29:00;7.30;;;6.70;;
2289;SDS011;1153;47.986;7.898;2023-05-01T05:31:25;5.43;;;5.00;;
2289;SDS011;1153;47.986;7.898;2023-05-01T05:33:50;4.43;;;4.23;;
2289;SDS011;1153;47.986;7.898;2023-05-01T05:36:16;4.13;;;3.93;;
2289;SDS011;1153;47.986;7.898;2023-05-01T05:38:41;4.00;;;3.80;;
2289;SDS011;1153;47.986;7.898;2023-05-01T05:41:06;4.97;;;4.57;;
2289;SDS011;1153;47.986;7.898;2023-05-01T05:43:31;3.60;;;3.10;;
2289;SDS011;1153;47.986;7.898;2023-05-01T05:45:57;3.13;;;3.03;;
2289;SDS011;1153;47.986;7.898;2023-05-01T05:48:22;4.77;;;4.37;;
2289;SDS011;1153;47.986;7.898;2023-05-01T05:50:48;4.23;;;4.03;;
2289;SDS011;1153;47.986;7.898;2023-05-01T05:53:15;4.07;;;3.77;;
2289;SDS011;1153;47.986;7.898;2023-05-01T05:55:40;5.03;;;3.50;;
2289;SDS011;1153;47.986;7.898;2023-05-01T05:58:07;3.70;;;3.50;;
2289;SDS011;1153;47.986;7.898;2023-05-01T06:00:32;3.03;;;2.83;;
2289;SDS011;1153;47.986;7.898;2023-05-01T06:02:57;4.13;;;3.87;;
2289;SDS011;1153;47.986;7.898;2023-05-01T06:05:22;4.50;;;4.30;;
2289;SDS011;1153;47.986;7.898;2023-05-01T06:07:48;5.47;;;5.17;;
2289;SDS011;1153;47.986;7.898;2023-05-01T06:10:15;4.40;;;4.20;;
2289;SDS011;1153;47.986;7.898;2023-05-01T06:12:40;3.80;;;3.60;;
2289;SDS011;1153;47.986;7.898;2023-05-01T06:15:05;4.90;;;4.47;;
2289;SDS011;1153;47.986;7.898;2023-05-01T06:17:31;4.80;;;4.43;;
2289;SDS011;1153;47.986;7.898;2023-05-01T06:19:56;4.50;;;4.30;;
2289;SDS011;1153;47.986;7.898;2023-05-01T06:22:21;4.50;;;4.30;;
2289;SDS011;1153;47.986;7.898;2023-05-01T06:24:46;4.30;;;4.10;;
2289;SDS011;1153;47.986;7.898;2023-05-01T06:27:12;4.63;;;4.40;;
2289;SDS011;1153;47.986;7.898;2023-05-01T06:29:37;7.80;;;4.37;;
2289;SDS011;1153;47.986;7.898;2023-05-01T06:32:02;3.77;;;3.57;;
2289;SDS011;1153;47.986;7.898;2023-05-01T06:34:28;4.47;;;4.17;;
2289;SDS011;1153;47.986;7.898;2023-05-01T06:36:54;4.90;;;4.70;;
2289;SDS011;1153;47.986;7.898;2023-05-01T06:39:19;5.90;;;5.57;;
2289;SDS011;1153;47.986;7.898;2023-05-01T06:41:44;5.77;;;5.47;;
2289;SDS011;1153;47.986;7.898;2023-05-01T06:44:10;5.93;;;5.63;;
2289;SDS011;1153;47.986;7.898;2023-05-01T06:46:35;5.93;;;5.60;;
2289;SDS011;1153;47.986;7.898;2023-05-01T06:49:00;6.00;;;5.70;;
2289;SDS011;1153;47.986;7.898;2023-05-01T06:51:25;5.67;;;5.37;;
2289;SDS011;1153;47.986;7.898;2023-05-01T06:53:51;4.83;;;4.63;;
2289;SDS011;1153;47.986;7.898;2023-05-01T06:56:16;5.03;;;4.83;;
2289;SDS011;1153;47.986;7.898;2023-05-01T06:58:42;5.63;;;5.33;;
2289;SDS011;1153;47.986;7.898;2023-05-01T07:01:07;4.73;;;4.53;;
2289;SDS011;1153;47.986;7.898;2023-05-01T07:03:32;6.80;;;4.90;;
2289;SDS011;1153;47.986;7.898;2023-05-01T07:05:57;5.77;;;5.37;;
2289;SDS011;1153;47.986;7.898;2023-05-01T07:08:22;4.70;;;4.40;;
2289;SDS011;1153;47.986;7.898;2023-05-01T07:10:48;4.83;;;4.63;;
2289;SDS011;1153;47.986;7.898;2023-05-01T07:13:14;5.40;;;5.10;;
2289;SDS011;1153;47.986;7.898;2023-05-01T07:15:39;4.83;;;4.50;;
2289;SDS011;1153;47.986;7.898;2023-05-01T07:18:05;4.63;;;4.37;;
2289;SDS011;1153;47.986;7.898;2023-05-01T07:20:30;4.53;;;4.33;;
2289;SDS011;1153;47.986;7.898;2023-05-01T07:22:55;4.57;;;4.37;;
2289;SDS011;1153;47.986;7.898;2023-05-01T07:25:21;3.63;;;3.47;;
2289;SDS011;1153;47.986;7.898;2023-05-01T07:27:46;4.30;;;4.10;;
2289;SDS011;1153;47.986;7.898;2023-05-01T07:30:11;5.43;;;3.70;;
2289;SDS011;1153;47.986;7.898;2023-05-01T07:32:36;6.07;;;4.47;;
2289;SDS011;1153;47.986;7.898;2023-05-01T07:35:02;5.87;;;5.47;;
2289;SDS011;1153;47.986;7.898;2023-05-01T07:37:28;7.10;;;4.60;;
2289;SDS011;1153;47.986;7.898;2023-05-01T07:39:53;5.90;;;5.70;;
2289;SDS011;1153;47.986;7.898;2023-05-01T07:42:18;5.57;;;5.30;;
2289;SDS011;1153;47.986;7.898;2023-05-01T07:44:43;5.00;;;4.70;;
2289;SDS011;1153;47.986;7.898;2023-05-01T07:47:09;4.83;;;4.63;;
2289;SDS011;1153;47.986;7.898;2023-05-01T07:49:35;4.70;;;4.37;;
2289;SDS011;1153;47.986;7.898;2023-05-01T07:52:01;5.03;;;4.83;;
2289;SDS011;1153;47.986;7.898;2023-05-01T07:54:26;4.27;;;4.00;;
2289;SDS011;1153;47.986;7.898;2023-05-01T07:56:51;5.83;;;5.53;;
2289;SDS011;1153;47.986;7.898;2023-05-01T07:59:16;5.93;;;5.53;;
2289;SDS011;1153;47.986;7.898;2023-05-01T08:01:41;5.63;;;5.20;;
2289;SDS011;1153;47.986;7.898;2023-05-01T08:04:07;4.40;;;4.20;;
2289;SDS011;1153;47.986;7.898;2023-05-01T08:06:32;7.70;;;4.80;;
2289;SDS011;1153;47.986;7.898;2023-05-01T08:08:57;5.07;;;4.73;;
2289;SDS011;1153;47.986;7.898;2023-05-01T08:11:22;4.90;;;4.07;;
2289;SDS011;1153;47.986;7.898;2023-05-01T08:13:49;5.53;;;4.23;;
2289;SDS011;1153;47.986;7.898;2023-05-01T08:16:14;4.80;;;4.37;;
2289;SDS011;1153;47.986;7.898;2023-05-01T08:18:39;4.57;;;4.27;;
2289;SDS011;1153;47.986;7.898;2023-05-01T08:21:04;4.70;;;4.50;;
2289;SDS011;1153;47.986;7.898;2023-05-01T08:23:30;5.03;;;4.73;;
2289;SDS011;1153;47.986;7.898;2023-05-01T08:25:55;5.60;;;5.40;;
2289;SDS011;1153;47.986;7.898;2023-05-01T08:28:21;5.77;;;5.47;;
2289;SDS011;1153;47.986;7.898;2023-05-01T08:30:47;5.57;;;5.07;;
2289;SDS011;1153;47.986;7.898;2023-05-01T08:33:14;6.50;;;6.20;;
2289;SDS011;1153;47.986;7.898;2023-05-01T08:35:40;4.47;;;4.27;;
2289;SDS011;1153;47.986;7.898;2023-05-01T08:38:05;5.23;;;5.00;;
2289;SDS011;1153;47.986;7.898;2023-05-01T08:40:31;4.13;;;3.83;;
2289;SDS011;1153;47.986;7.898;2023-05-01T08:42:58;5.53;;;5.10;;
2289;SDS011;1153;47.986;7.898;2023-05-01T08:45:24;4.63;;;4.40;;
2289;SDS011;1153;47.986;7.898;2023-05-01T08:47:51;4.53;;;4.33;;
2289;SDS011;1153;47.986;7.898;2023-05-01T08:50:18;5.33;;;5.10;;
2289;SDS011;1153;47.986;7.898;2023-05-01T08:52:43;6.27;;;5.87;;
2289;SDS011;1153;47.986;7.898;2023-05-01T08:55:13;5.00;;;4.80;;
2289;SDS011;1153;47.986;7.898;2023-05-01T08:57:38;5.43;;;5.00;;
2289;SDS011;1153;47.986;7.898;2023-05-01T09:00:04;5.47;;;5.10;;
2289;SDS011;1153;47.986;7.898;2023-05-01T09:02:29;5.33;;;5.13;;
2289;SDS011;1153;47.986;7.898;2023-05-01T09:04:55;5.87;;;5.57;;
2289;SDS011;1153;47.986;7.898;2023-05-01T09:07:21;5.30;;;5.10;;
2289;SDS011;1153;47.986;7.898;2023-05-01T09:09:46;5.43;;;5.20;;
2289;SDS011;1153;47.986;7.898;2023-05-01T09:12:14;5.47;;;5.17;;
2289;SDS011;1153;47.986;7.898;2023-05-01T09:14:42;5.63;;;5.33;;
2289;SDS011;1153;47.986;7.898;2023-05-01T09:17:07;5.47;;;5.00;;
2289;SDS011;1153;47.986;7.898;2023-05-01T09:19:32;4.63;;;4.23;;
2289;SDS011;1153;47.986;7.898;2023-05-01T09:21:57;6.13;;;5.83;;
2289;SDS011;1153;47.986;7.898;2023-05-01T09:24:23;4.60;;;4.40;;
2289;SDS011;1153;47.986;7.898;2023-05-01T09:26:49;5.97;;;5.67;;
2289;SDS011;1153;47.986;7.898;2023-05-01T09:29:31;5.37;;;5.17;;
2289;SDS011;1153;47.986;7.898;2023-05-01T09:32:11;5.23;;;4.67;;
2289;SDS011;1153;47.986;7.898;2023-05-01T09:34:36;3.83;;;3.60;;
2289;SDS011;1153;47.986;7.898;2023-05-01T09:37:02;4.47;;;4.27;;
2289;SDS011;1153;47.986;7.898;2023-05-01T09:39:27;4.20;;;4.00;;
2289;SDS011;1153;47.986;7.898;2023-05-01T09:41:52;5.90;;;5.50;;
2289;SDS011;1153;47.986;7.898;2023-05-01T09:44:17;4.67;;;4.37;;
2289;SDS011;1153;47.986;7.898;2023-05-01T09:46:43;4.97;;;4.67;;
2289;SDS011;1153;47.986;7.898;2023-05-01T09:49:08;4.53;;;4.33;;
2289;SDS011;1153;47.986;7.898;2023-05-01T09:51:34;6.30;;;6.00;;
2289;SDS011;1153;47.986;7.898;2023-05-01T09:54:00;5.60;;;5.30;;
2289;SDS011;1153;47.986;7.898;2023-05-01T09:56:26;4.50;;;4.30;;
2289;SDS011;1153;47.986;7.898;2023-05-01T09:58:52;4.60;;;4.30;;
2289;SDS011;1153;47.986;7.898;2023-05-01T10:01:18;4.50;;;4.20;;
2289;SDS011;1153;47.986;7.898;2023-05-01T10:04:01;3.77;;;3.47;;
2289;SDS011;1153;47.986;7.898;2023-05-01T10:06:27;4.23;;;4.03;;
2289;SDS011;1153;47.986;7.898;2023-05-01T10:08:52;3.70;;;3.40;;
2289;SDS011;1153;47.986;7.898;2023-05-01T10:11:18;5.37;;;5.07;;
2289;SDS011;1153;47.986;7.898;2023-05-01T10:13:43;3.77;;;3.57;;
2289;SDS011;1153;47.986;7.898;2023-05-01T10:16:29;3.87;;;3.30;;
2289;SDS011;1153;47.986;7.898;2023-05-01T10:18:54;4.27;;;3.60;;
2289;SDS011;1153;47.986;7.898;2023-05-01T10:21:21;2.67;;;2.53;;
2289;SDS011;1153;47.986;7.898;2023-05-01T10:23:46;3.37;;;3.17;;
2289;SDS011;1153;47.986;7.898;2023-05-01T10:26:12;1.77;;;1.67;;
2289;SDS011;1153;47.986;7.898;2023-05-01T10:28:37;3.17;;;2.97;;
2289;SDS011;1153;47.986;7.898;2023-05-01T10:31:03;1.73;;;1.63;;
2289;SDS011;1153;47.986;7.898;2023-05-01T10:33:29;2.03;;;1.93;;
2289;SDS011;1153;47.986;7.898;2023-05-01T10:35:56;1.77;;;1.67;;
2289;SDS011;1153;47.986;7.898;2023-05-01T10:38:24;1.70;;;1.60;;
2289;SDS011;1153;47.986;7.898;2023-05-01T10:40:50;1.80;;;1.70;;
2289;SDS011;1153;47.986;7.898;2023-05-01T10:45:44;1.30;;;1.20;;
2289;SDS011;1153;47.986;7.898;2023-05-01T10:48:09;1.40;;;1.30;;
2289;SDS011;1153;47.986;7.898;2023-05-01T10:50:35;1.10;;;0.90;;
2289;SDS011;1153;47.986;7.898;2023-05-01T10:53:20;1.00;;;1.00;;
2289;SDS011;1153;47.986;7.898;2023-05-01T10:55:46;1.83;;;0.80;;
2289;SDS011;1153;47.986;7.898;2023-05-01T10:58:12;1.10;;;1.00;;
2289;SDS011;1153;47.986;7.898;2023-05-01T11:00:38;0.80;;;0.80;;
2289;SDS011;1153;47.986;7.898;2023-05-01T11:08:31;1.23;;;1.13;;
2289;SDS011;1153;47.986;7.898;2023-05-01T11:10:56;1.00;;;0.83;;
2289;SDS011;1153;47.986;7.898;2023-05-01T11:16:38;1.20;;;1.10;;
2289;SDS011;1153;47.986;7.898;2023-05-01T11:18:51;1.40;;;1.30;;
2289;SDS011;1153;47.986;7.898;2023-05-01T11:21:16;0.90;;;0.70;;
2289;SDS011;1153;47.986;7.898;2023-05-01T11:23:45;0.80;;;0.73;;
2289;SDS011;1153;47.986;7.898;2023-05-01T11:26:10;1.00;;;0.90;;
2289;SDS011;1153;47.986;7.898;2023-05-01T11:28:37;0.87;;;0.80;;
2289;SDS011;1153;47.986;7.898;2023-05-01T11:31:02;1.00;;;0.80;;
2289;SDS011;1153;47.986;7.898;2023-05-01T11:33:27;1.43;;;1.33;;
2289;SDS011;1153;47.986;7.898;2023-05-01T11:35:56;1.50;;;1.40;;
2289;SDS011;1153;47.986;7.898;2023-05-01T11:38:24;1.10;;;1.00;;
2289;SDS011;1153;47.986;7.898;2023-05-01T11:40:52;1.20;;;0.93;;
2289;SDS011;1153;47.986;7.898;2023-05-01T11:43:18;5.37;;;1.23;;
2289;SDS011;1153;47.986;7.898;2023-05-01T11:45:43;1.33;;;1.23;;
2289;SDS011;1153;47.986;7.898;2023-05-01T11:48:14;1.07;;;0.97;;
2289;SDS011;1153;47.986;7.898;2023-05-01T11:50:42;1.00;;;0.90;;
2289;SDS011;1153;47.986;7.898;2023-05-01T11:53:11;1.20;;;1.10;;
2289;SDS011;1153;47.986;7.898;2023-05-01T11:55:37;0.80;;;0.70;;
2289;SDS011;1153;47.986;7.898;2023-05-01T11:58:02;1.30;;;1.20;;
2289;SDS011;1153;47.986;7.898;2023-05-01T12:02:54;1.40;;;1.30;;
2289;SDS011;1153;47.986;7.898;2023-05-01T12:05:21;1.40;;;1.30;;
2289;SDS011;1153;47.986;7.898;2023-05-01T12:07:47;1.57;;;1.47;;
2289;SDS011;1153;47.986;7.898;2023-05-01T12:10:12;1.00;;;0.90;;
2289;SDS011;1153;47.986;7.898;2023-05-01T12:12:37;1.40;;;1.30;;
2289;SDS011;1153;47.986;7.898;2023-05-01T12:15:03;2.50;;;1.30;;
2289;SDS011;1153;47.986;7.898;2023-05-01T12:17:28;1.30;;;1.20;;
2289;SDS011;1153;47.986;7.898;2023-05-01T12:19:54;2.13;;;1.23;;
2289;SDS011;1153;47.986;7.898;2023-05-01T12:22:19;3.53;;;1.00;;
2289;SDS011;1153;47.986;7.898;2023-05-01T12:24:49;1.30;;;1.20;;
2289;SDS011;1153;47.986;7.898;2023-05-01T12:27:15;1.20;;;1.10;;
2289;SDS011;1153;47.986;7.898;2023-05-01T12:29:41;1.20;;;1.10;;
2289;SDS011;1153;47.986;7.898;2023-05-01T12:32:06;1.10;;;0.90;;
2289;SDS011;1153;47.986;7.898;2023-05-01T12:34:32;1.23;;;1.13;;
2289;SDS011;1153;47.986;7.898;2023-05-01T12:36:57;1.10;;;1.00;;
2289;SDS011;1153;47.986;7.898;2023-05-01T12:39:23;1.20;;;1.10;;
2289;SDS011;1153;47.986;7.898;2023-05-01T12:41:48;4.00;;;1.23;;
2289;SDS011;1153;47.986;7.898;2023-05-01T12:46:58;1.30;;;1.20;;
2289;SDS011;1153;47.986;7.898;2023-05-01T12:49:23;2.03;;;1.20;;
2289;SDS011;1153;47.986;7.898;2023-05-01T12:51:50;1.40;;;1.30;;
2289;SDS011;1153;47.986;7.898;2023-05-01T12:54:22;1.40;;;1.23;;
2289;SDS011;1153;47.986;7.898;2023-05-01T12:56:47;1.70;;;1.60;;
2289;SDS011;1153;47.986;7.898;2023-05-01T12:59:19;1.67;;;1.37;;
2289;SDS011;1153;47.986;7.898;2023-05-01T13:01:45;1.77;;;1.63;;
2289;SDS011;1153;47.986;7.898;2023-05-01T13:04:11;1.20;;;1.10;;
2289;SDS011;1153;47.986;7.898;2023-05-01T13:06:36;2.60;;;1.47;;
2289;SDS011;1153;47.986;7.898;2023-05-01T13:09:08;2.03;;;1.83;;
2289;SDS011;1153;47.986;7.898;2023-05-01T13:11:34;1.20;;;1.10;;
2289;SDS011;1153;47.986;7.898;2023-05-01T13:14:05;1.40;;;1.30;;
2289;SDS011;1153;47.986;7.898;2023-05-01T13:16:31;1.73;;;1.63;;
2289;SDS011;1153;47.986;7.898;2023-05-01T13:18:56;10.60;;;7.13;;
2289;SDS011;1153;47.986;7.898;2023-05-01T13:21:22;2.00;;;1.90;;
2289;SDS011;1153;47.986;7.898;2023-05-01T13:23:55;1.33;;;1.23;;
2289;SDS011;1153;47.986;7.898;2023-05-01T13:26:27;1.43;;;1.33;;
2289;SDS011;1153;47.986;7.898;2023-05-01T13:28:53;2.20;;;2.10;;
2289;SDS011;1153;47.986;7.898;2023-05-01T13:31:18;1.60;;;1.50;;
2289;SDS011;1153;47.986;7.898;2023-05-01T13:33:43;2.60;;;1.90;;
2289;SDS011;1153;47.986;7.898;2023-05-01T13:36:09;1.47;;;1.37;;
2289;SDS011;1153;47.986;7.898;2023-05-01T13:38:40;1.33;;;1.23;;
2289;SDS011;1153;47.986;7.898;2023-05-01T13:41:06;1.20;;;1.10;;
2289;SDS011;1153;47.986;7.898;2023-05-01T13:43:31;2.17;;;1.43;;
2289;SDS011;1153;47.986;7.898;2023-05-01T13:45:56;6.73;;;4.93;;
2289;SDS011;1153;47.986;7.898;2023-05-01T13:48:21;1.20;;;1.10;;
2289;SDS011;1153;47.986;7.898;2023-05-01T13:50:47;1.37;;;1.27;;
2289;SDS011;1153;47.986;7.898;2023-05-01T13:53:13;1.53;;;1.43;;
2289;SDS011;1153;47.986;7.898;2023-05-01T13:55:39;1.20;;;1.10;;
2289;SDS011;1153;47.986;7.898;2023-05-01T13:58:04;1.50;;;1.40;;
2289;SDS011;1153;47.986;7.898;2023-05-01T14:00:30;1.93;;;1.83;;
2289;SDS011;1153;47.986;7.898;2023-05-01T14:02:55;1.60;;;1.50;;
2289;SDS011;1153;47.986;7.898;2023-05-01T14:05:25;2.43;;;2.10;;
2289;SDS011;1153;47.986;7.898;2023-05-01T14:07:55;1.80;;;1.70;;
2289;SDS011;1153;47.986;7.898;2023-05-01T14:10:20;2.23;;;2.03;;
2289;SDS011;1153;47.986;7.898;2023-05-01T14:12:46;2.17;;;1.97;;
2289;SDS011;1153;47.986;7.898;2023-05-01T14:15:12;3.70;;;1.97;;
2289;SDS011;1153;47.986;7.898;2023-05-01T14:17:37;1.50;;;1.40;;
2289;SDS011;1153;47.986;7.898;2023-05-01T14:20:03;2.10;;;2.00;;
2289;SDS011;1153;47.986;7.898;2023-05-01T14:22:33;2.30;;;2.20;;
2289;SDS011;1153;47.986;7.898;2023-05-01T14:24:58;2.33;;;1.67;;
2289;SDS011;1153;47.986;7.898;2023-05-01T14:27:24;2.20;;;2.10;;
2289;SDS011;1153;47.986;7.898;2023-05-01T14:29:49;2.20;;;2.10;;
2289;SDS011;1153;47.986;7.898;2023-05-01T14:32:14;3.47;;;1.60;;
2289;SDS011;1153;47.986;7.898;2023-05-01T14:34:42;5.77;;;1.73;;
2289;SDS011;1153;47.986;7.898;2023-05-01T14:37:09;1.77;;;1.57;;
2289;SDS011;1153;47.986;7.898;2023-05-01T14:39:35;1.53;;;1.43;;
2289;SDS011;1153;47.986;7.898;2023-05-01T14:42:00;1.80;;;1.70;;
2289;SDS011;1153;47.986;7.898;2023-05-01T14:44:26;1.77;;;1.67;;
2289;SDS011;1153;47.986;7.898;2023-05-01T14:46:52;2.00;;;1.90;;
2289;SDS011;1153;47.986;7.898;2023-05-01T14:49:18;4.50;;;1.60;;
2289;SDS011;1153;47.986;7.898;2023-05-01T14:51:46;1.93;;;1.80;;
2289;SDS011;1153;47.986;7.898;2023-05-01T14:54:12;2.40;;;1.27;;
2289;SDS011;1153;47.986;7.898;2023-05-01T14:56:38;1.57;;;1.47;;
2289;SDS011;1153;47.986;7.898;2023-05-01T14:59:03;1.53;;;1.43;;
2289;SDS011;1153;47.986;7.898;2023-05-01T15:01:28;1.20;;;1.10;;
2289;SDS011;1153;47.986;7.898;2023-05-01T15:03:53;1.53;;;1.43;;
2289;SDS011;1153;47.986;7.898;2023-05-01T15:06:19;1.80;;;1.70;;
2289;SDS011;1153;47.986;7.898;2023-05-01T15:08:44;1.53;;;1.43;;
2289;SDS011;1153;47.986;7.898;2023-05-01T15:11:11;1.33;;;1.23;;
2289;SDS011;1153;47.986;7.898;2023-05-01T15:13:37;1.20;;;1.10;;
2289;SDS011;1153;47.986;7.898;2023-05-01T15:16:03;1.47;;;1.37;;
2289;SDS011;1153;47.986;7.898;2023-05-01T15:18:28;1.70;;;1.60;;
2289;SDS011;1153;47.986;7.898;2023-05-01T15:20:53;1.40;;;1.30;;
2289;SDS011;1153;47.986;7.898;2023-05-01T15:23:19;8.43;;;2.00;;
2289;SDS011;1153;47.986;7.898;2023-05-01T15:25:44;2.10;;;1.30;;
2289;SDS011;1153;47.986;7.898;2023-05-01T15:28:11;1.57;;;1.47;;
2289;SDS011;1153;47.986;7.898;2023-05-01T15:30:37;3.00;;;1.70;;
2289;SDS011;1153;47.986;7.898;2023-05-01T15:33:02;4.90;;;1.67;;
2289;SDS011;1153;47.986;7.898;2023-05-01T15:35:27;1.60;;;1.47;;
2289;SDS011;1153;47.986;7.898;2023-05-01T15:37:53;1.70;;;1.40;;
2289;SDS011;1153;47.986;7.898;2023-05-01T15:40:20;2.43;;;2.23;;